sensor_id;sensor_type;location;lat;lon;timestamp;P1;durP1;ratioP1;P2;durP2;ratioP2
18251;SDS011;26917;52.328;20.878;2022-10-16T00:01:05;26.40;;;16.33;;
18251;SDS011;26917;52.328;20.878;2022-10-16T00:03:35;28.60;;;16.33;;
18251;SDS011;26917;52.328;20.878;2022-10-16T00:06:03;33.33;;;17.85;;
18251;SDS011;26917;52.328;20.878;2022-10-16T00:08:32;27.05;;;16.02;;
18251;SDS011;26917;52.328;20.878;2022-10-16T00:11:01;27.10;;;16.63;;
18251;SDS011;26917;52.328;20.878;2022-10-16T00:13:32;29.83;;;16.98;;
18251;SDS011;26917;52.328;20.878;2022-10-16T00:16:02;26.88;;;15.00;;
18251;SDS011;26917;52.328;20.878;2022-10-16T00:18:31;27.10;;;15.25;;
18251;SDS011;26917;52.328;20.878;2022-10-16T00:21:01;26.08;;;14.63;;
18251;SDS011;26917;52.328;20.878;2022-10-16T00:23:31;32.22;;;16.10;;
18251;SDS011;26917;52.328;20.878;2022-10-16T00:26:00;26.40;;;15.05;;
18251;SDS011;26917;52.328;20.878;2022-10-16T00:28:32;27.42;;;15.85;;
18251;SDS011;26917;52.328;20.878;2022-10-16T00:31:02;24.60;;;15.40;;
18251;SDS011;26917;52.328;20.878;2022-10-16T00:33:31;25.40;;;14.88;;
18251;SDS011;26917;52.328;20.878;2022-10-16T00:35:59;25.38;;;15.15;;
18251;SDS011;26917;52.328;20.878;2022-10-16T00:38:28;25.25;;;15.43;;
18251;SDS011;26917;52.328;20.878;2022-10-16T00:40:56;24.95;;;14.82;;
18251;SDS011;26917;52.328;20.878;2022-10-16T00:43:36;28.92;;;14.50;;
18251;SDS011;26917;52.328;20.878;2022-10-16T00:46:10;22.02;;;13.38;;
18251;SDS011;26917;52.328;20.878;2022-10-16T00:48:45;25.27;;;13.50;;
18251;SDS011;26917;52.328;20.878;2022-10-16T00:51:17;26.48;;;13.05;;
18251;SDS011;26917;52.328;20.878;2022-10-16T00:53:48;24.23;;;13.75;;
18251;SDS011;26917;52.328;20.878;2022-10-16T00:56:17;23.33;;;13.00;;
18251;SDS011;26917;52.328;20.878;2022-10-16T00:58:47;21.27;;;13.93;;
18251;SDS011;26917;52.328;20.878;2022-10-16T01:01:15;20.42;;;13.18;;
18251;SDS011;26917;52.328;20.878;2022-10-16T01:03:43;25.52;;;13.55;;
18251;SDS011;26917;52.328;20.878;2022-10-16T01:06:16;26.20;;;13.57;;
18251;SDS011;26917;52.328;20.878;2022-10-16T01:09:09;21.55;;;13.07;;
18251;SDS011;26917;52.328;20.878;2022-10-16T01:11:44;20.65;;;12.68;;
18251;SDS011;26917;52.328;20.878;2022-10-16T01:14:23;18.45;;;11.38;;
18251;SDS011;26917;52.328;20.878;2022-10-16T01:16:58;16.52;;;11.30;;
18251;SDS011;26917;52.328;20.878;2022-10-16T01:19:38;19.20;;;12.50;;
18251;SDS011;26917;52.328;20.878;2022-10-16T01:22:17;17.67;;;11.95;;
18251;SDS011;26917;52.328;20.878;2022-10-16T01:24:48;17.90;;;11.80;;
18251;SDS011;26917;52.328;20.878;2022-10-16T01:27:19;18.83;;;11.27;;
18251;SDS011;26917;52.328;20.878;2022-10-16T01:29:52;16.80;;;11.70;;
18251;SDS011;26917;52.328;20.878;2022-10-16T01:32:27;19.40;;;11.40;;
18251;SDS011;26917;52.328;20.878;2022-10-16T01:34:59;19.88;;;11.98;;
18251;SDS011;26917;52.328;20.878;2022-10-16T01:37:32;16.42;;;11.45;;
18251;SDS011;26917;52.328;20.878;2022-10-16T01:40:05;18.58;;;11.95;;
18251;SDS011;26917;52.328;20.878;2022-10-16T01:42:40;18.58;;;11.07;;
18251;SDS011;26917;52.328;20.878;2022-10-16T01:45:12;17.52;;;11.57;;
18251;SDS011;26917;52.328;20.878;2022-10-16T01:47:44;18.15;;;11.73;;
18251;SDS011;26917;52.328;20.878;2022-10-16T01:50:14;19.60;;;11.77;;
18251;SDS011;26917;52.328;20.878;2022-10-16T01:52:46;16.10;;;11.23;;
18251;SDS011;26917;52.328;20.878;2022-10-16T01:55:17;19.50;;;11.38;;
18251;SDS011;26917;52.328;20.878;2022-10-16T01:57:50;16.02;;;10.38;;
18251;SDS011;26917;52.328;20.878;2022-10-16T02:00:21;21.75;;;11.95;;
18251;SDS011;26917;52.328;20.878;2022-10-16T02:02:50;21.80;;;10.75;;
18251;SDS011;26917;52.328;20.878;2022-10-16T02:05:22;16.67;;;11.23;;
18251;SDS011;26917;52.328;20.878;2022-10-16T02:07:54;18.42;;;10.98;;
18251;SDS011;26917;52.328;20.878;2022-10-16T02:10:27;18.70;;;10.80;;
18251;SDS011;26917;52.328;20.878;2022-10-16T02:13:00;22.33;;;10.90;;
18251;SDS011;26917;52.328;20.878;2022-10-16T02:15:32;17.55;;;11.73;;
18251;SDS011;26917;52.328;20.878;2022-10-16T02:18:01;21.48;;;12.80;;
18251;SDS011;26917;52.328;20.878;2022-10-16T02:20:31;14.68;;;10.43;;
18251;SDS011;26917;52.328;20.878;2022-10-16T02:23:04;22.77;;;12.18;;
18251;SDS011;26917;52.328;20.878;2022-10-16T02:25:37;23.17;;;11.77;;
18251;SDS011;26917;52.328;20.878;2022-10-16T02:28:11;18.30;;;10.98;;
18251;SDS011;26917;52.328;20.878;2022-10-16T02:30:44;21.35;;;11.98;;
18251;SDS011;26917;52.328;20.878;2022-10-16T02:33:16;23.33;;;13.15;;
18251;SDS011;26917;52.328;20.878;2022-10-16T02:35:47;25.08;;;12.60;;
18251;SDS011;26917;52.328;20.878;2022-10-16T02:38:17;23.95;;;12.48;;
18251;SDS011;26917;52.328;20.878;2022-10-16T02:40:47;19.70;;;12.18;;
18251;SDS011;26917;52.328;20.878;2022-10-16T02:43:18;18.02;;;10.95;;
18251;SDS011;26917;52.328;20.878;2022-10-16T02:45:46;22.55;;;13.93;;
18251;SDS011;26917;52.328;20.878;2022-10-16T02:48:14;22.25;;;11.57;;
18251;SDS011;26917;52.328;20.878;2022-10-16T02:50:43;18.13;;;11.75;;
18251;SDS011;26917;52.328;20.878;2022-10-16T02:53:11;20.02;;;12.07;;
18251;SDS011;26917;52.328;20.878;2022-10-16T02:55:39;20.00;;;12.57;;
18251;SDS011;26917;52.328;20.878;2022-10-16T02:58:07;21.05;;;11.85;;
18251;SDS011;26917;52.328;20.878;2022-10-16T03:00:37;20.92;;;13.07;;
18251;SDS011;26917;52.328;20.878;2022-10-16T03:03:05;21.42;;;11.95;;
18251;SDS011;26917;52.328;20.878;2022-10-16T03:05:33;18.20;;;12.70;;
18251;SDS011;26917;52.328;20.878;2022-10-16T03:08:02;17.48;;;11.90;;
18251;SDS011;26917;52.328;20.878;2022-10-16T03:10:30;24.13;;;12.93;;
18251;SDS011;26917;52.328;20.878;2022-10-16T03:12:58;20.30;;;12.05;;
18251;SDS011;26917;52.328;20.878;2022-10-16T03:15:26;27.98;;;13.45;;
18251;SDS011;26917;52.328;20.878;2022-10-16T03:17:58;20.60;;;12.80;;
18251;SDS011;26917;52.328;20.878;2022-10-16T03:20:26;19.42;;;13.07;;
18251;SDS011;26917;52.328;20.878;2022-10-16T03:22:54;21.77;;;13.35;;
18251;SDS011;26917;52.328;20.878;2022-10-16T03:25:23;24.77;;;14.43;;
18251;SDS011;26917;52.328;20.878;2022-10-16T03:27:51;19.00;;;13.10;;
18251;SDS011;26917;52.328;20.878;2022-10-16T03:30:20;22.08;;;13.38;;
18251;SDS011;26917;52.328;20.878;2022-10-16T03:32:48;23.13;;;12.93;;
18251;SDS011;26917;52.328;20.878;2022-10-16T03:35:22;24.27;;;13.32;;
18251;SDS011;26917;52.328;20.878;2022-10-16T03:37:51;22.42;;;12.63;;
18251;SDS011;26917;52.328;20.878;2022-10-16T03:40:19;24.48;;;14.75;;
18251;SDS011;26917;52.328;20.878;2022-10-16T03:42:47;20.90;;;13.52;;
18251;SDS011;26917;52.328;20.878;2022-10-16T03:45:16;21.75;;;13.93;;
18251;SDS011;26917;52.328;20.878;2022-10-16T03:47:44;25.40;;;14.07;;
18251;SDS011;26917;52.328;20.878;2022-10-16T03:50:12;28.27;;;14.55;;
18251;SDS011;26917;52.328;20.878;2022-10-16T03:52:42;26.40;;;14.57;;
18251;SDS011;26917;52.328;20.878;2022-10-16T03:55:10;21.55;;;13.25;;
18251;SDS011;26917;52.328;20.878;2022-10-16T03:57:38;30.50;;;13.70;;
18251;SDS011;26917;52.328;20.878;2022-10-16T04:00:06;21.02;;;13.05;;
18251;SDS011;26917;52.328;20.878;2022-10-16T04:02:38;24.67;;;13.82;;
18251;SDS011;26917;52.328;20.878;2022-10-16T04:05:07;22.55;;;14.00;;
18251;SDS011;26917;52.328;20.878;2022-10-16T04:07:35;22.58;;;14.73;;
18251;SDS011;26917;52.328;20.878;2022-10-16T04:10:05;26.30;;;13.93;;
18251;SDS011;26917;52.328;20.878;2022-10-16T04:12:34;28.27;;;15.30;;
18251;SDS011;26917;52.328;20.878;2022-10-16T04:15:02;24.75;;;15.73;;
18251;SDS011;26917;52.328;20.878;2022-10-16T04:17:31;27.08;;;15.50;;
18251;SDS011;26917;52.328;20.878;2022-10-16T04:19:59;30.73;;;16.17;;
18251;SDS011;26917;52.328;20.878;2022-10-16T04:22:27;24.58;;;14.77;;
18251;SDS011;26917;52.328;20.878;2022-10-16T04:24:55;24.38;;;14.05;;
18251;SDS011;26917;52.328;20.878;2022-10-16T04:27:25;23.20;;;15.00;;
18251;SDS011;26917;52.328;20.878;2022-10-16T04:29:55;29.08;;;16.45;;
18251;SDS011;26917;52.328;20.878;2022-10-16T04:32:24;28.38;;;16.67;;
18251;SDS011;26917;52.328;20.878;2022-10-16T04:34:52;30.45;;;16.38;;
18251;SDS011;26917;52.328;20.878;2022-10-16T04:37:23;24.27;;;15.15;;
18251;SDS011;26917;52.328;20.878;2022-10-16T04:39:52;27.35;;;16.15;;
18251;SDS011;26917;52.328;20.878;2022-10-16T04:42:20;28.98;;;16.50;;
18251;SDS011;26917;52.328;20.878;2022-10-16T04:44:50;29.55;;;15.77;;
18251;SDS011;26917;52.328;20.878;2022-10-16T04:47:19;31.60;;;17.77;;
18251;SDS011;26917;52.328;20.878;2022-10-16T04:49:47;26.30;;;16.25;;
18251;SDS011;26917;52.328;20.878;2022-10-16T04:52:15;26.45;;;16.95;;
18251;SDS011;26917;52.328;20.878;2022-10-16T04:54:45;29.27;;;15.43;;
18251;SDS011;26917;52.328;20.878;2022-10-16T04:57:13;28.23;;;16.05;;
18251;SDS011;26917;52.328;20.878;2022-10-16T04:59:41;31.77;;;16.73;;
18251;SDS011;26917;52.328;20.878;2022-10-16T05:02:11;32.63;;;16.80;;
18251;SDS011;26917;52.328;20.878;2022-10-16T05:04:39;29.30;;;16.08;;
18251;SDS011;26917;52.328;20.878;2022-10-16T05:07:07;31.92;;;17.80;;
18251;SDS011;26917;52.328;20.878;2022-10-16T05:09:35;30.40;;;16.20;;
18251;SDS011;26917;52.328;20.878;2022-10-16T05:12:03;29.33;;;17.08;;
18251;SDS011;26917;52.328;20.878;2022-10-16T05:14:32;29.35;;;17.25;;
18251;SDS011;26917;52.328;20.878;2022-10-16T05:17:00;27.45;;;16.77;;
18251;SDS011;26917;52.328;20.878;2022-10-16T05:19:29;30.27;;;17.25;;
18251;SDS011;26917;52.328;20.878;2022-10-16T05:21:58;29.85;;;16.50;;
18251;SDS011;26917;52.328;20.878;2022-10-16T05:24:26;33.95;;;19.25;;
18251;SDS011;26917;52.328;20.878;2022-10-16T05:26:54;30.23;;;17.27;;
18251;SDS011;26917;52.328;20.878;2022-10-16T05:29:22;31.48;;;17.98;;
18251;SDS011;26917;52.328;20.878;2022-10-16T05:31:51;30.65;;;17.27;;
18251;SDS011;26917;52.328;20.878;2022-10-16T05:34:20;33.03;;;17.67;;
18251;SDS011;26917;52.328;20.878;2022-10-16T05:36:49;28.63;;;17.10;;
18251;SDS011;26917;52.328;20.878;2022-10-16T05:39:18;30.90;;;18.63;;
18251;SDS011;26917;52.328;20.878;2022-10-16T05:41:46;30.38;;;17.80;;
18251;SDS011;26917;52.328;20.878;2022-10-16T05:44:16;30.83;;;18.08;;
18251;SDS011;26917;52.328;20.878;2022-10-16T05:46:45;31.42;;;18.17;;
18251;SDS011;26917;52.328;20.878;2022-10-16T05:49:14;27.48;;;17.15;;
18251;SDS011;26917;52.328;20.878;2022-10-16T05:51:42;31.88;;;18.10;;
18251;SDS011;26917;52.328;20.878;2022-10-16T05:54:12;30.05;;;18.15;;
18251;SDS011;26917;52.328;20.878;2022-10-16T05:56:40;32.90;;;18.15;;
18251;SDS011;26917;52.328;20.878;2022-10-16T05:59:08;34.72;;;17.90;;
18251;SDS011;26917;52.328;20.878;2022-10-16T06:01:37;30.65;;;16.98;;
18251;SDS011;26917;52.328;20.878;2022-10-16T06:04:05;32.03;;;17.85;;
18251;SDS011;26917;52.328;20.878;2022-10-16T06:06:33;32.85;;;17.30;;
18251;SDS011;26917;52.328;20.878;2022-10-16T06:09:02;32.28;;;16.65;;
18251;SDS011;26917;52.328;20.878;2022-10-16T06:11:33;31.45;;;17.60;;
18251;SDS011;26917;52.328;20.878;2022-10-16T06:14:01;29.55;;;18.65;;
18251;SDS011;26917;52.328;20.878;2022-10-16T06:16:33;31.50;;;18.42;;
18251;SDS011;26917;52.328;20.878;2022-10-16T06:19:03;27.45;;;17.52;;
18251;SDS011;26917;52.328;20.878;2022-10-16T06:21:32;30.52;;;17.80;;
18251;SDS011;26917;52.328;20.878;2022-10-16T06:24:01;34.65;;;18.65;;
18251;SDS011;26917;52.328;20.878;2022-10-16T06:26:30;32.83;;;19.08;;
18251;SDS011;26917;52.328;20.878;2022-10-16T06:29:00;32.97;;;18.35;;
18251;SDS011;26917;52.328;20.878;2022-10-16T06:31:29;31.73;;;17.90;;
18251;SDS011;26917;52.328;20.878;2022-10-16T06:34:00;28.70;;;18.05;;
18251;SDS011;26917;52.328;20.878;2022-10-16T06:36:28;29.75;;;17.45;;
18251;SDS011;26917;52.328;20.878;2022-10-16T06:38:56;32.80;;;18.42;;
18251;SDS011;26917;52.328;20.878;2022-10-16T06:41:24;28.92;;;17.65;;
18251;SDS011;26917;52.328;20.878;2022-10-16T06:43:53;33.45;;;18.25;;
18251;SDS011;26917;52.328;20.878;2022-10-16T06:46:23;29.80;;;18.38;;
18251;SDS011;26917;52.328;20.878;2022-10-16T06:48:52;26.58;;;17.35;;
18251;SDS011;26917;52.328;20.878;2022-10-16T06:51:21;31.92;;;17.85;;
18251;SDS011;26917;52.328;20.878;2022-10-16T06:53:51;27.40;;;17.30;;
18251;SDS011;26917;52.328;20.878;2022-10-16T06:56:29;29.65;;;16.95;;
18251;SDS011;26917;52.328;20.878;2022-10-16T06:58:58;30.40;;;17.65;;
18251;SDS011;26917;52.328;20.878;2022-10-16T07:01:29;29.35;;;17.17;;
18251;SDS011;26917;52.328;20.878;2022-10-16T07:03:57;26.67;;;16.23;;
18251;SDS011;26917;52.328;20.878;2022-10-16T07:06:26;25.90;;;14.95;;
18251;SDS011;26917;52.328;20.878;2022-10-16T07:12:07;21.88;;;13.60;;
18251;SDS011;26917;52.328;20.878;2022-10-16T07:14:35;24.23;;;14.55;;
18251;SDS011;26917;52.328;20.878;2022-10-16T07:17:05;22.50;;;13.60;;
18251;SDS011;26917;52.328;20.878;2022-10-16T07:19:33;22.58;;;12.73;;
18251;SDS011;26917;52.328;20.878;2022-10-16T07:22:01;19.88;;;14.07;;
18251;SDS011;26917;52.328;20.878;2022-10-16T07:24:29;22.58;;;12.82;;
18251;SDS011;26917;52.328;20.878;2022-10-16T07:26:57;20.95;;;13.45;;
18251;SDS011;26917;52.328;20.878;2022-10-16T07:29:26;19.75;;;12.68;;
18251;SDS011;26917;52.328;20.878;2022-10-16T07:31:54;21.55;;;13.07;;
18251;SDS011;26917;52.328;20.878;2022-10-16T07:34:24;25.77;;;13.80;;
18251;SDS011;26917;52.328;20.878;2022-10-16T07:36:52;21.63;;;13.23;;
18251;SDS011;26917;52.328;20.878;2022-10-16T07:39:21;28.30;;;14.10;;
18251;SDS011;26917;52.328;20.878;2022-10-16T07:41:49;20.77;;;13.85;;
18251;SDS011;26917;52.328;20.878;2022-10-16T07:44:17;19.35;;;13.07;;
18251;SDS011;26917;52.328;20.878;2022-10-16T07:46:45;24.42;;;13.48;;
18251;SDS011;26917;52.328;20.878;2022-10-16T07:49:14;22.38;;;13.23;;
18251;SDS011;26917;52.328;20.878;2022-10-16T07:51:43;19.55;;;12.82;;
18251;SDS011;26917;52.328;20.878;2022-10-16T07:54:11;22.98;;;13.45;;
18251;SDS011;26917;52.328;20.878;2022-10-16T07:56:40;23.58;;;13.32;;
18251;SDS011;26917;52.328;20.878;2022-10-16T07:59:09;20.83;;;12.88;;
18251;SDS011;26917;52.328;20.878;2022-10-16T08:01:37;22.67;;;12.60;;
18251;SDS011;26917;52.328;20.878;2022-10-16T08:04:06;23.63;;;13.05;;
18251;SDS011;26917;52.328;20.878;2022-10-16T08:06:35;19.75;;;11.70;;
18251;SDS011;26917;52.328;20.878;2022-10-16T08:09:05;22.08;;;12.07;;
18251;SDS011;26917;52.328;20.878;2022-10-16T08:11:34;23.52;;;13.15;;
18251;SDS011;26917;52.328;20.878;2022-10-16T08:14:02;21.23;;;11.90;;
18251;SDS011;26917;52.328;20.878;2022-10-16T08:16:30;16.48;;;11.48;;
18251;SDS011;26917;52.328;20.878;2022-10-16T08:18:59;23.52;;;14.00;;
18251;SDS011;26917;52.328;20.878;2022-10-16T08:21:27;23.05;;;12.90;;
18251;SDS011;26917;52.328;20.878;2022-10-16T08:23:57;22.58;;;13.65;;
18251;SDS011;26917;52.328;20.878;2022-10-16T08:26:28;27.50;;;12.88;;
18251;SDS011;26917;52.328;20.878;2022-10-16T08:28:56;20.90;;;12.35;;
18251;SDS011;26917;52.328;20.878;2022-10-16T08:31:24;22.60;;;12.52;;
18251;SDS011;26917;52.328;20.878;2022-10-16T08:33:53;22.23;;;12.50;;
18251;SDS011;26917;52.328;20.878;2022-10-16T08:36:21;23.38;;;12.18;;
18251;SDS011;26917;52.328;20.878;2022-10-16T08:38:50;19.63;;;11.55;;
18251;SDS011;26917;52.328;20.878;2022-10-16T08:41:30;20.73;;;12.82;;
18251;SDS011;26917;52.328;20.878;2022-10-16T08:44:25;18.92;;;11.93;;
18251;SDS011;26917;52.328;20.878;2022-10-16T08:47:06;19.98;;;11.05;;
18251;SDS011;26917;52.328;20.878;2022-10-16T08:49:51;20.05;;;12.35;;
18251;SDS011;26917;52.328;20.878;2022-10-16T08:52:25;19.27;;;11.88;;
18251;SDS011;26917;52.328;20.878;2022-10-16T08:54:57;16.30;;;11.52;;
18251;SDS011;26917;52.328;20.878;2022-10-16T08:57:27;16.15;;;11.07;;
18251;SDS011;26917;52.328;20.878;2022-10-16T08:59:57;19.55;;;11.45;;
18251;SDS011;26917;52.328;20.878;2022-10-16T09:02:33;17.77;;;11.40;;
18251;SDS011;26917;52.328;20.878;2022-10-16T09:05:11;18.17;;;11.57;;
18251;SDS011;26917;52.328;20.878;2022-10-16T09:07:50;16.13;;;10.85;;
18251;SDS011;26917;52.328;20.878;2022-10-16T09:10:36;21.60;;;11.55;;
18251;SDS011;26917;52.328;20.878;2022-10-16T09:13:14;19.30;;;10.80;;
18251;SDS011;26917;52.328;20.878;2022-10-16T09:15:52;20.02;;;11.25;;
18251;SDS011;26917;52.328;20.878;2022-10-16T09:18:26;20.40;;;11.27;;
18251;SDS011;26917;52.328;20.878;2022-10-16T09:21:05;16.25;;;9.48;;
18251;SDS011;26917;52.328;20.878;2022-10-16T09:23:38;19.83;;;10.75;;
18251;SDS011;26917;52.328;20.878;2022-10-16T09:26:09;15.43;;;10.23;;
18251;SDS011;26917;52.328;20.878;2022-10-16T09:28:42;15.10;;;10.38;;
18251;SDS011;26917;52.328;20.878;2022-10-16T09:31:15;17.38;;;10.13;;
18251;SDS011;26917;52.328;20.878;2022-10-16T09:33:47;15.02;;;9.55;;
18251;SDS011;26917;52.328;20.878;2022-10-16T09:36:19;19.05;;;10.40;;
18251;SDS011;26917;52.328;20.878;2022-10-16T09:38:48;17.48;;;9.90;;
18251;SDS011;26917;52.328;20.878;2022-10-16T09:41:17;13.70;;;9.90;;
18251;SDS011;26917;52.328;20.878;2022-10-16T09:43:49;15.23;;;10.40;;
18251;SDS011;26917;52.328;20.878;2022-10-16T09:46:22;13.35;;;9.82;;
18251;SDS011;26917;52.328;20.878;2022-10-16T09:48:54;20.48;;;10.18;;
18251;SDS011;26917;52.328;20.878;2022-10-16T09:51:24;16.17;;;10.38;;
18251;SDS011;26917;52.328;20.878;2022-10-16T09:53:56;15.38;;;9.43;;
18251;SDS011;26917;52.328;20.878;2022-10-16T09:56:26;15.35;;;9.90;;
18251;SDS011;26917;52.328;20.878;2022-10-16T09:58:58;16.08;;;10.10;;
18251;SDS011;26917;52.328;20.878;2022-10-16T10:01:29;16.02;;;9.18;;
18251;SDS011;26917;52.328;20.878;2022-10-16T10:04:02;19.75;;;10.63;;
18251;SDS011;26917;52.328;20.878;2022-10-16T10:06:33;15.27;;;8.77;;
18251;SDS011;26917;52.328;20.878;2022-10-16T10:09:05;15.00;;;9.20;;
18251;SDS011;26917;52.328;20.878;2022-10-16T10:11:43;14.70;;;8.88;;
18251;SDS011;26917;52.328;20.878;2022-10-16T10:14:20;14.70;;;9.73;;
18251;SDS011;26917;52.328;20.878;2022-10-16T10:16:50;14.15;;;9.57;;
18251;SDS011;26917;52.328;20.878;2022-10-16T10:19:20;20.25;;;10.63;;
18251;SDS011;26917;52.328;20.878;2022-10-16T10:21:56;13.20;;;8.85;;
18251;SDS011;26917;52.328;20.878;2022-10-16T10:24:24;15.73;;;9.55;;
18251;SDS011;26917;52.328;20.878;2022-10-16T10:26:54;13.43;;;9.55;;
18251;SDS011;26917;52.328;20.878;2022-10-16T10:29:31;17.00;;;9.70;;
18251;SDS011;26917;52.328;20.878;2022-10-16T10:32:10;15.70;;;9.52;;
18251;SDS011;26917;52.328;20.878;2022-10-16T10:34:51;16.73;;;9.32;;
18251;SDS011;26917;52.328;20.878;2022-10-16T10:40:40;13.52;;;9.27;;
18251;SDS011;26917;52.328;20.878;2022-10-16T10:43:20;16.05;;;10.02;;
18251;SDS011;26917;52.328;20.878;2022-10-16T10:45:59;13.32;;;9.40;;
18251;SDS011;26917;52.328;20.878;2022-10-16T10:48:50;14.15;;;8.90;;
18251;SDS011;26917;52.328;20.878;2022-10-16T10:51:28;14.40;;;9.30;;
18251;SDS011;26917;52.328;20.878;2022-10-16T10:54:09;14.20;;;9.30;;
18251;SDS011;26917;52.328;20.878;2022-10-16T10:56:45;26.50;;;10.05;;
18251;SDS011;26917;52.328;20.878;2022-10-16T10:59:31;19.00;;;9.90;;
18251;SDS011;26917;52.328;20.878;2022-10-16T11:02:21;18.73;;;10.55;;
18251;SDS011;26917;52.328;20.878;2022-10-16T11:05:09;15.90;;;9.93;;
18251;SDS011;26917;52.328;20.878;2022-10-16T11:08:07;22.52;;;10.63;;
18251;SDS011;26917;52.328;20.878;2022-10-16T11:10:44;16.92;;;10.20;;
18251;SDS011;26917;52.328;20.878;2022-10-16T11:13:19;15.93;;;10.75;;
18251;SDS011;26917;52.328;20.878;2022-10-16T11:15:55;16.42;;;10.00;;
18251;SDS011;26917;52.328;20.878;2022-10-16T11:18:29;15.82;;;9.70;;
18251;SDS011;26917;52.328;20.878;2022-10-16T11:21:04;15.27;;;9.95;;
18251;SDS011;26917;52.328;20.878;2022-10-16T11:23:37;16.27;;;9.00;;
18251;SDS011;26917;52.328;20.878;2022-10-16T11:26:11;17.60;;;9.80;;
18251;SDS011;26917;52.328;20.878;2022-10-16T11:28:43;15.07;;;9.63;;
18251;SDS011;26917;52.328;20.878;2022-10-16T11:31:16;14.68;;;9.20;;
18251;SDS011;26917;52.328;20.878;2022-10-16T11:33:51;17.00;;;9.85;;
18251;SDS011;26917;52.328;20.878;2022-10-16T11:36:33;14.27;;;9.52;;
18251;SDS011;26917;52.328;20.878;2022-10-16T11:39:09;16.67;;;9.00;;
18251;SDS011;26917;52.328;20.878;2022-10-16T11:41:47;15.88;;;9.50;;
18251;SDS011;26917;52.328;20.878;2022-10-16T11:44:31;13.23;;;9.02;;
18251;SDS011;26917;52.328;20.878;2022-10-16T11:47:08;14.55;;;9.25;;
18251;SDS011;26917;52.328;20.878;2022-10-16T11:50:09;16.20;;;8.65;;
18251;SDS011;26917;52.328;20.878;2022-10-16T11:52:48;12.63;;;9.38;;
18251;SDS011;26917;52.328;20.878;2022-10-16T11:55:23;18.80;;;10.20;;
18251;SDS011;26917;52.328;20.878;2022-10-16T11:57:58;15.70;;;9.75;;
18251;SDS011;26917;52.328;20.878;2022-10-16T12:00:33;16.90;;;9.25;;
18251;SDS011;26917;52.328;20.878;2022-10-16T12:03:08;17.80;;;10.57;;
18251;SDS011;26917;52.328;20.878;2022-10-16T12:05:55;15.65;;;9.40;;
18251;SDS011;26917;52.328;20.878;2022-10-16T12:08:34;16.33;;;9.02;;
18251;SDS011;26917;52.328;20.878;2022-10-16T12:11:07;16.90;;;9.57;;
18251;SDS011;26917;52.328;20.878;2022-10-16T12:13:37;16.25;;;9.20;;
18251;SDS011;26917;52.328;20.878;2022-10-16T12:16:20;13.80;;;8.75;;
18251;SDS011;26917;52.328;20.878;2022-10-16T12:18:50;16.88;;;9.05;;
18251;SDS011;26917;52.328;20.878;2022-10-16T12:21:38;16.08;;;9.20;;
18251;SDS011;26917;52.328;20.878;2022-10-16T12:24:18;21.08;;;10.93;;
18251;SDS011;26917;52.328;20.878;2022-10-16T12:26:50;17.10;;;9.38;;
18251;SDS011;26917;52.328;20.878;2022-10-16T12:29:22;16.90;;;9.77;;
18251;SDS011;26917;52.328;20.878;2022-10-16T12:32:00;13.27;;;8.23;;
18251;SDS011;26917;52.328;20.878;2022-10-16T12:34:32;12.13;;;8.55;;
18251;SDS011;26917;52.328;20.878;2022-10-16T12:37:13;17.42;;;9.05;;
18251;SDS011;26917;52.328;20.878;2022-10-16T12:39:46;14.93;;;8.57;;
18251;SDS011;26917;52.328;20.878;2022-10-16T12:42:20;14.43;;;9.50;;
18251;SDS011;26917;52.328;20.878;2022-10-16T12:44:59;11.65;;;8.07;;
18251;SDS011;26917;52.328;20.878;2022-10-16T12:47:36;12.77;;;9.15;;
18251;SDS011;26917;52.328;20.878;2022-10-16T12:53:00;13.40;;;8.93;;
18251;SDS011;26917;52.328;20.878;2022-10-16T12:55:32;15.10;;;8.02;;
18251;SDS011;26917;52.328;20.878;2022-10-16T12:58:13;13.07;;;7.90;;
18251;SDS011;26917;52.328;20.878;2022-10-16T13:00:50;14.52;;;8.23;;
18251;SDS011;26917;52.328;20.878;2022-10-16T13:06:27;13.52;;;8.98;;
18251;SDS011;26917;52.328;20.878;2022-10-16T13:09:19;12.27;;;7.78;;
18251;SDS011;26917;52.328;20.878;2022-10-16T13:15:24;16.17;;;8.45;;
18251;SDS011;26917;52.328;20.878;2022-10-16T13:18:01;17.83;;;8.45;;
18251;SDS011;26917;52.328;20.878;2022-10-16T13:20:46;12.40;;;8.32;;
18251;SDS011;26917;52.328;20.878;2022-10-16T13:23:25;12.32;;;8.82;;
18251;SDS011;26917;52.328;20.878;2022-10-16T13:26:06;16.42;;;8.98;;
18251;SDS011;26917;52.328;20.878;2022-10-16T13:28:44;19.30;;;8.93;;
18251;SDS011;26917;52.328;20.878;2022-10-16T13:31:14;14.93;;;8.88;;
18251;SDS011;26917;52.328;20.878;2022-10-16T13:33:46;14.02;;;9.07;;
18251;SDS011;26917;52.328;20.878;2022-10-16T13:36:19;15.25;;;9.35;;
18251;SDS011;26917;52.328;20.878;2022-10-16T13:38:57;10.80;;;8.23;;
18251;SDS011;26917;52.328;20.878;2022-10-16T13:41:33;17.05;;;9.70;;
18251;SDS011;26917;52.328;20.878;2022-10-16T13:44:01;12.93;;;8.50;;
18251;SDS011;26917;52.328;20.878;2022-10-16T13:46:30;15.65;;;9.00;;
18251;SDS011;26917;52.328;20.878;2022-10-16T13:49:02;13.63;;;9.65;;
18251;SDS011;26917;52.328;20.878;2022-10-16T13:51:33;12.88;;;8.73;;
18251;SDS011;26917;52.328;20.878;2022-10-16T13:54:01;15.88;;;9.63;;
18251;SDS011;26917;52.328;20.878;2022-10-16T13:56:30;13.15;;;9.10;;
18251;SDS011;26917;52.328;20.878;2022-10-16T13:59:02;14.95;;;9.02;;
18251;SDS011;26917;52.328;20.878;2022-10-16T14:01:32;14.30;;;9.27;;
18251;SDS011;26917;52.328;20.878;2022-10-16T14:04:08;12.13;;;9.25;;
18251;SDS011;26917;52.328;20.878;2022-10-16T14:06:41;11.98;;;9.10;;
18251;SDS011;26917;52.328;20.878;2022-10-16T14:09:14;19.92;;;10.77;;
18251;SDS011;26917;52.328;20.878;2022-10-16T14:11:50;14.20;;;9.45;;
18251;SDS011;26917;52.328;20.878;2022-10-16T14:14:22;14.05;;;9.63;;
18251;SDS011;26917;52.328;20.878;2022-10-16T14:16:51;13.88;;;10.18;;
18251;SDS011;26917;52.328;20.878;2022-10-16T14:19:20;15.35;;;9.98;;
18251;SDS011;26917;52.328;20.878;2022-10-16T14:21:51;20.67;;;10.02;;
18251;SDS011;26917;52.328;20.878;2022-10-16T14:24:25;17.52;;;10.05;;
18251;SDS011;26917;52.328;20.878;2022-10-16T14:26:54;14.18;;;9.68;;
18251;SDS011;26917;52.328;20.878;2022-10-16T14:29:25;13.95;;;9.18;;
18251;SDS011;26917;52.328;20.878;2022-10-16T14:31:54;15.85;;;10.13;;
18251;SDS011;26917;52.328;20.878;2022-10-16T14:34:28;19.98;;;9.65;;
18251;SDS011;26917;52.328;20.878;2022-10-16T14:36:59;16.58;;;10.18;;
18251;SDS011;26917;52.328;20.878;2022-10-16T14:39:33;14.82;;;9.70;;
18251;SDS011;26917;52.328;20.878;2022-10-16T14:42:02;15.80;;;9.88;;
18251;SDS011;26917;52.328;20.878;2022-10-16T14:44:32;17.48;;;10.80;;
18251;SDS011;26917;52.328;20.878;2022-10-16T14:47:07;12.70;;;9.30;;
18251;SDS011;26917;52.328;20.878;2022-10-16T14:49:40;23.48;;;9.75;;
18251;SDS011;26917;52.328;20.878;2022-10-16T14:52:09;14.20;;;9.60;;
18251;SDS011;26917;52.328;20.878;2022-10-16T14:54:39;15.70;;;10.10;;
18251;SDS011;26917;52.328;20.878;2022-10-16T14:57:13;16.20;;;9.20;;